Time;durP1;ratioP1;P1;durP2;ratioP2;P2;SDS_P1;SDS_P2;PMS_P1;PMS_P2;Temp;Humidity;BMP_temperature;BMP_pressure;BME280_temperature;BME280_humidity;BME280_pressure;Samples;Min_cycle;Max_cycle;Signal;HPM_P1;HPM_P2
2023/02/06 00:01:31;;;;;;;3.05;0.40;;;4.00;97.40;;;;;;5004198;28;20045;-80
2023/02/06 00:03:58;;;;;;;5.20;0.60;;;4.00;97.40;;;;;;5037341;28;20076;-82
2023/02/06 00:06:25;;;;;;;2.50;0.35;;;3.90;97.40;;;;;;5003820;28;20041;-83
2023/02/06 00:08:52;;;;;;;4.22;0.60;;;4.00;97.40;;;;;;5006333;28;20045;-84
2023/02/06 00:11:20;;;;;;;5.00;0.88;;;4.00;97.40;;;;;;5016640;28;20046;-84
2023/02/06 00:13:47;;;;;;;3.20;0.35;;;4.00;97.40;;;;;;5030682;28;20056;-83
2023/02/06 00:16:26;;;;;;;3.17;0.45;;;3.90;97.40;;;;;;5028109;28;20052;-83
2023/02/06 00:18:55;;;;;;;5.13;0.80;;;3.90;97.40;;;;;;5036174;28;20120;-83
2023/02/06 00:21:24;;;;;;;4.18;0.50;;;3.90;97.50;;;;;;5035971;28;20045;-83
2023/02/06 00:23:54;;;;;;;9.02;1.10;;;3.90;97.50;;;;;;5035214;28;20045;-84
2023/02/06 00:26:22;;;;;;;5.88;0.60;;;3.80;97.50;;;;;;5016439;28;20045;-85
2023/02/06 00:28:49;;;;;;;4.05;0.40;;;3.80;97.50;;;;;;5020271;28;20107;-84
2023/02/06 00:31:17;;;;;;;8.95;1.00;;;3.70;97.60;;;;;;4999284;28;20037;-85
2023/02/06 00:33:44;;;;;;;4.03;0.60;;;3.70;97.60;;;;;;5016900;28;20049;-85
2023/02/06 00:36:11;;;;;;;3.58;0.30;;;3.70;97.60;;;;;;5016660;28;20080;-85
2023/02/06 00:38:38;;;;;;;5.65;0.40;;;3.60;97.60;;;;;;5016577;28;20045;-85
2023/02/06 00:41:05;;;;;;;7.32;0.55;;;3.60;97.70;;;;;;5010875;28;20091;-85
2023/02/06 00:43:32;;;;;;;3.65;0.55;;;3.60;97.70;;;;;;5020044;28;20080;-86
2023/02/06 00:45:59;;;;;;;3.40;0.40;;;3.60;97.70;;;;;;5036363;28;20045;-85
2023/02/06 00:48:27;;;;;;;3.42;0.32;;;3.50;97.80;;;;;;5026405;28;20048;-85
2023/02/06 00:50:55;;;;;;;7.10;0.50;;;3.50;97.80;;;;;;5032774;28;20049;-85
2023/02/06 00:53:23;;;;;;;3.80;0.57;;;3.50;97.80;;;;;;5015970;28;20045;-85
2023/02/06 00:55:51;;;;;;;3.53;0.73;;;3.50;97.80;;;;;;5016121;28;20042;-85
2023/02/06 00:58:20;;;;;;;2.85;0.55;;;3.50;97.80;;;;;;5032644;28;20468;-85
2023/02/06 01:00:47;;;;;;;4.35;0.47;;;3.50;97.80;;;;;;5016396;28;20474;-85
2023/02/06 01:03:18;;;;;;;3.65;0.88;;;3.40;97.80;;;;;;5019749;28;20132;-85
2023/02/06 01:05:45;;;;;;;6.28;0.50;;;3.40;97.90;;;;;;5039056;28;20048;-85
2023/02/06 01:08:12;;;;;;;5.18;0.43;;;3.40;97.90;;;;;;5055997;28;20440;-85
2023/02/06 01:10:41;;;;;;;4.70;0.65;;;3.40;97.90;;;;;;5035930;28;20056;-85
2023/02/06 01:13:09;;;;;;;3.20;0.60;;;3.30;97.90;;;;;;5045234;28;20477;-85
2023/02/06 01:15:37;;;;;;;2.40;0.40;;;3.30;97.90;;;;;;5002418;28;20045;-85
2023/02/06 01:18:04;;;;;;;5.85;0.40;;;3.30;97.90;;;;;;5000132;28;20441;-85
2023/02/06 01:20:31;;;;;;;3.30;0.30;;;3.30;97.90;;;;;;5010218;28;20048;-86
2023/02/06 01:22:58;;;;;;;3.70;0.63;;;3.30;97.90;;;;;;5027285;28;20045;-86
2023/02/06 01:25:26;;;;;;;3.45;0.35;;;3.30;98.00;;;;;;5019337;28;20055;-86
2023/02/06 01:27:53;;;;;;;1.85;0.30;;;3.20;97.90;;;;;;5022746;28;20040;-86
2023/02/06 01:30:20;;;;;;;3.22;0.32;;;3.20;97.90;;;;;;5023448;28;20128;-85
2023/02/06 01:32:48;;;;;;;3.42;0.32;;;3.30;98.00;;;;;;5007435;28;20045;-85
2023/02/06 01:35:15;;;;;;;3.55;0.60;;;3.30;98.00;;;;;;5008681;28;20041;-86
2023/02/06 01:37:43;;;;;;;3.00;0.63;;;3.30;98.00;;;;;;5027301;28;20040;-85
2023/02/06 01:40:14;;;;;;;6.22;0.68;;;3.40;98.00;;;;;;5059697;28;20143;-85
2023/02/06 01:42:42;;;;;;;5.45;0.70;;;3.40;97.90;;;;;;5043387;28;20045;-85
2023/02/06 01:45:23;;;;;;;4.78;0.70;;;3.40;97.90;;;;;;5043180;28;20086;-85
2023/02/06 01:48:19;;;;;;;4.07;0.50;;;3.50;97.90;;;;;;5059606;28;20044;-85
2023/02/06 01:50:52;;;;;;;5.47;0.50;;;3.40;97.80;;;;;;5075587;28;20075;-85
2023/02/06 01:53:21;;;;;;;7.05;1.17;;;3.40;97.80;;;;;;5040965;28;20059;-85
2023/02/06 01:55:50;;;;;;;5.40;0.95;;;3.40;97.80;;;;;;5023270;28;20140;-85
2023/02/06 01:58:32;;;;;;;3.63;0.40;;;3.40;97.80;;;;;;5022996;28;20051;-85
2023/02/06 02:01:01;;;;;;;5.30;0.57;;;3.50;97.80;;;;;;5022963;28;20045;-85
2023/02/06 02:03:35;;;;;;;5.10;1.65;;;3.50;97.70;;;;;;5038857;28;20567;-85
2023/02/06 02:06:08;;;;;;;3.17;0.63;;;3.50;97.70;;;;;;5039050;28;20048;-85
2023/02/06 02:08:39;;;;;;;2.25;0.30;;;3.50;97.70;;;;;;5022127;28;20049;-85
2023/02/06 02:11:07;;;;;;;2.63;0.40;;;3.60;97.70;;;;;;5039194;28;20044;-85
2023/02/06 02:13:37;;;;;;;3.67;0.40;;;3.60;97.70;;;;;;5023999;28;20037;-85
2023/02/06 02:16:23;;;;;;;2.90;0.40;;;3.60;97.70;;;;;;5038927;28;20394;-85
2023/02/06 02:19:03;;;;;;;5.85;0.70;;;3.70;97.60;;;;;;5022567;28;20049;-85
2023/02/06 02:21:48;;;;;;;3.95;0.70;;;3.70;97.70;;;;;;5039134;28;20049;-85
2023/02/06 02:24:21;;;;;;;11.15;1.00;;;3.70;97.60;;;;;;5022174;28;20108;-85
2023/02/06 02:27:09;;;;;;;4.38;0.60;;;3.70;97.60;;;;;;5022091;28;20045;-85
2023/02/06 02:29:49;;;;;;;2.40;0.40;;;3.80;97.60;;;;;;5038505;28;20041;-86
2023/02/06 02:32:47;;;;;;;4.60;0.50;;;3.80;97.60;;;;;;5050667;28;20052;-85
2023/02/06 02:35:20;;;;;;;4.95;0.68;;;3.80;97.60;;;;;;5042117;28;20079;-85
2023/02/06 02:38:12;;;;;;;7.90;0.55;;;3.80;97.60;;;;;;5041973;28;20045;-86
2023/02/06 02:40:55;;;;;;;4.25;1.10;;;3.80;97.60;;;;;;5071156;28;20050;-86
2023/02/06 02:43:26;;;;;;;2.42;0.38;;;3.80;97.60;;;;;;5062046;28;20131;-86
2023/02/06 02:46:06;;;;;;;5.57;0.50;;;3.80;97.60;;;;;;5078640;28;20196;-85
2023/02/06 02:48:40;;;;;;;2.15;0.50;;;3.90;97.60;;;;;;5078935;28;20048;-86
2023/02/06 02:51:09;;;;;;;3.47;0.60;;;3.80;97.60;;;;;;5061885;28;20054;-86
2023/02/06 02:53:36;;;;;;;4.88;0.75;;;3.90;97.60;;;;;;5078178;28;20048;-86
2023/02/06 02:56:21;;;;;;;4.75;0.60;;;3.90;97.60;;;;;;5044303;28;20040;-86
2023/02/06 02:58:55;;;;;;;7.13;0.77;;;3.90;97.60;;;;;;5054341;28;20076;-85
2023/02/06 03:01:32;;;;;;;2.15;0.40;;;3.90;97.60;;;;;;5038161;28;20048;-85
2023/02/06 03:04:07;;;;;;;3.75;0.30;;;3.90;97.60;;;;;;5038120;28;20044;-85
2023/02/06 03:06:47;;;;;;;2.20;0.30;;;3.90;97.60;;;;;;5054790;28;20041;-86
2023/02/06 03:09:27;;;;;;;6.38;0.73;;;4.00;97.60;;;;;;5054025;28;20047;-85
2023/02/06 03:12:43;;;;;;;3.08;0.40;;;4.00;97.60;;;;;;5057864;28;20492;-85
2023/02/06 03:15:30;;;;;;;4.13;0.50;;;4.00;97.60;;;;;;5053563;28;20047;-86
2023/02/06 03:18:13;;;;;;;1.45;0.20;;;4.00;97.60;;;;;;5057911;28;20076;-85
2023/02/06 03:20:44;;;;;;;2.42;0.40;;;4.00;97.60;;;;;;5064215;28;20047;-85
2023/02/06 03:23:17;;;;;;;2.45;0.30;;;4.10;97.60;;;;;;5077599;28;20040;-85
2023/02/06 03:25:46;;;;;;;3.03;0.40;;;4.10;97.60;;;;;;5060898;28;20040;-85
2023/02/06 03:28:21;;;;;;;5.65;0.95;;;4.10;97.60;;;;;;5064317;28;20132;-85
2023/02/06 03:30:52;;;;;;;2.78;0.60;;;4.20;97.60;;;;;;5057373;28;20094;-86
2023/02/06 03:33:25;;;;;;;4.32;0.50;;;4.10;97.60;;;;;;5057853;28;20111;-85
2023/02/06 03:35:54;;;;;;;5.32;0.47;;;4.20;97.60;;;;;;5041030;28;20048;-86
2023/02/06 03:38:23;;;;;;;4.07;0.80;;;4.10;97.80;;;;;;5008623;28;20052;-85
2023/02/06 03:40:53;;;;;;;3.95;0.40;;;4.10;97.60;;;;;;5025304;28;20131;-85
2023/02/06 03:43:25;;;;;;;3.80;0.50;;;4.10;97.60;;;;;;5037852;28;20456;-85
2023/02/06 03:45:59;;;;;;;2.97;0.30;;;4.10;97.70;;;;;;5036839;28;20064;-85
2023/02/06 03:48:34;;;;;;;5.18;0.90;;;4.00;97.70;;;;;;5053558;28;20044;-85
2023/02/06 03:51:08;;;;;;;4.82;0.55;;;3.90;97.70;;;;;;5036408;28;20076;-80
2023/02/06 03:53:37;;;;;;;2.22;0.30;;;3.90;97.80;;;;;;5052731;28;20064;-80
2023/02/06 03:56:13;;;;;;;1.90;0.20;;;3.80;97.80;;;;;;5042709;28;20043;-80
2023/02/06 03:58:40;;;;;;;2.10;0.30;;;3.80;97.90;;;;;;5056075;28;20500;-80
2023/02/06 04:01:07;;;;;;;2.88;0.40;;;3.70;98.00;;;;;;5056070;28;20051;-80
2023/02/06 04:03:34;;;;;;;3.88;0.40;;;3.70;98.00;;;;;;5023105;28;20468;-80
2023/02/06 04:06:01;;;;;;;3.22;0.65;;;3.70;98.10;;;;;;5073907;28;20391;-80
2023/02/06 04:08:28;;;;;;;1.20;0.20;;;3.70;98.10;;;;;;5039650;28;20456;-80
2023/02/06 04:10:55;;;;;;;3.75;0.25;;;3.70;98.10;;;;;;5022990;28;20063;-80
2023/02/06 04:13:22;;;;;;;2.70;0.45;;;3.70;98.10;;;;;;5039391;28;20040;-80
2023/02/06 04:15:49;;;;;;;2.13;0.20;;;3.70;98.10;;;;;;5006920;28;20068;-79
2023/02/06 04:18:16;;;;;;;3.95;0.50;;;3.80;98.10;;;;;;5023211;28;20051;-80
2023/02/06 04:20:43;;;;;;;4.47;0.30;;;3.80;98.10;;;;;;5069110;28;20044;-81
2023/02/06 04:23:10;;;;;;;5.82;0.38;;;3.80;98.00;;;;;;5006900;28;20404;-80
2023/02/06 04:25:37;;;;;;;1.58;0.30;;;3.80;98.00;;;;;;5023188;28;20546;-81
2023/02/06 04:28:04;;;;;;;2.60;0.50;;;3.80;98.00;;;;;;5039377;28;20491;-80
2023/02/06 04:30:31;;;;;;;3.45;0.82;;;3.80;98.00;;;;;;5039442;28;20040;-80
2023/02/06 04:32:58;;;;;;;1.08;0.20;;;3.80;98.00;;;;;;5038886;28;20424;-80
2023/02/06 04:35:25;;;;;;;2.58;0.30;;;3.80;98.10;;;;;;5038973;28;20045;-81
2023/02/06 04:37:53;;;;;;;1.98;0.10;;;3.80;98.00;;;;;;5039236;28;20401;-80
2023/02/06 04:40:20;;;;;;;3.50;0.30;;;3.80;98.00;;;;;;5055617;28;20048;-80
2023/02/06 04:42:47;;;;;;;2.03;0.20;;;3.80;98.10;;;;;;5023012;28;20076;-80
2023/02/06 04:45:14;;;;;;;2.53;0.40;;;3.70;98.10;;;;;;5022827;28;20120;-79
2023/02/06 04:47:41;;;;;;;1.67;0.20;;;3.70;98.10;;;;;;5053264;28;20081;-80
2023/02/06 04:50:09;;;;;;;0.85;0.20;;;3.70;98.20;;;;;;5039084;28;20033;-80
2023/02/06 04:52:36;;;;;;;1.30;0.20;;;3.70;98.20;;;;;;5056001;28;20115;-80
2023/02/06 04:55:03;;;;;;;2.17;0.20;;;3.60;98.20;;;;;;5026010;28;20043;-80
2023/02/06 04:57:30;;;;;;;0.90;0.10;;;3.60;98.20;;;;;;5012579;28;20049;-80
2023/02/06 04:59:57;;;;;;;1.23;0.20;;;3.60;98.20;;;;;;5052097;28;20370;-80
2023/02/06 05:02:24;;;;;;;4.20;0.40;;;3.60;98.30;;;;;;5034615;28;20055;-80
2023/02/06 05:04:51;;;;;;;1.13;0.20;;;3.60;98.30;;;;;;5019164;28;20135;-80
2023/02/06 05:07:19;;;;;;;0.85;0.10;;;3.60;98.20;;;;;;5035437;28;20048;-81
2023/02/06 05:09:46;;;;;;;5.93;0.55;;;3.70;98.20;;;;;;5040869;28;20032;-80
2023/02/06 05:12:13;;;;;;;7.32;0.40;;;3.70;98.20;;;;;;5038310;28;20036;-80
2023/02/06 05:14:40;;;;;;;1.92;0.38;;;3.70;98.20;;;;;;5009424;28;20032;-80
2023/02/06 05:17:07;;;;;;;3.45;0.30;;;3.70;98.10;;;;;;5058426;28;20072;-80
2023/02/06 05:19:34;;;;;;;1.90;0.20;;;3.80;98.10;;;;;;5058652;28;20044;-80
2023/02/06 05:22:01;;;;;;;2.67;0.45;;;3.70;98.10;;;;;;5058418;28;20051;-79
2023/02/06 05:24:28;;;;;;;2.55;0.30;;;3.70;98.10;;;;;;5042266;28;20062;-80
2023/02/06 05:26:57;;;;;;;2.30;0.10;;;3.70;98.10;;;;;;5074990;28;20506;-79
2023/02/06 05:29:25;;;;;;;1.92;0.30;;;3.60;98.20;;;;;;5040665;28;20044;-79
2023/02/06 05:31:52;;;;;;;2.35;0.20;;;3.60;98.20;;;;;;5038446;28;20045;-80
2023/02/06 05:34:19;;;;;;;1.90;0.20;;;3.50;98.20;;;;;;5038365;28;20072;-80
2023/02/06 05:36:46;;;;;;;2.42;0.38;;;3.50;98.30;;;;;;5022012;28;20123;-80
2023/02/06 05:39:13;;;;;;;4.60;0.88;;;3.40;98.60;;;;;;5052327;28;20518;-80
2023/02/06 05:41:40;;;;;;;3.45;0.30;;;3.50;98.40;;;;;;5074644;28;20054;-80
2023/02/06 05:44:09;;;;;;;0.70;0.10;;;3.50;98.40;;;;;;5074740;28;20054;-80
2023/02/06 05:46:37;;;;;;;2.35;0.40;;;3.50;98.40;;;;;;5074338;28;20139;-80
2023/02/06 05:49:04;;;;;;;0.73;0.10;;;3.50;98.40;;;;;;5074733;28;20040;-80
2023/02/06 05:51:31;;;;;;;4.00;0.40;;;3.50;98.40;;;;;;5058086;28;20410;-80
2023/02/06 05:53:58;;;;;;;5.57;0.50;;;3.60;98.40;;;;;;5058199;28;20400;-80
2023/02/06 05:56:25;;;;;;;1.33;0.20;;;3.60;98.30;;;;;;5058077;28;20094;-80
2023/02/06 05:58:52;;;;;;;3.45;0.30;;;3.60;98.30;;;;;;5044618;28;20040;-80
2023/02/06 06:01:19;;;;;;;2.43;0.30;;;3.60;98.30;;;;;;5037973;28;20481;-80
2023/02/06 06:03:46;;;;;;;0.80;0.10;;;3.60;98.20;;;;;;5038352;28;20123;-81
2023/02/06 06:06:13;;;;;;;2.88;0.20;;;3.60;98.20;;;;;;5042081;28;20037;-80
2023/02/06 06:08:40;;;;;;;2.15;0.20;;;3.60;98.30;;;;;;5037541;28;20040;-80
2023/02/06 06:11:07;;;;;;;1.90;0.25;;;3.60;98.30;;;;;;5005473;28;20040;-80
2023/02/06 06:13:34;;;;;;;1.20;0.43;;;3.60;98.30;;;;;;5024010;28;20044;-80
2023/02/06 06:16:01;;;;;;;1.83;0.25;;;3.60;98.30;;;;;;5025437;28;20480;-80
2023/02/06 06:18:28;;;;;;;2.85;0.20;;;3.60;98.30;;;;;;5058756;28;20048;-80
2023/02/06 06:20:55;;;;;;;3.17;0.30;;;3.60;98.30;;;;;;5025313;28;20485;-80
2023/02/06 06:23:25;;;;;;;2.00;0.20;;;3.60;98.40;;;;;;5058465;28;20408;-80
2023/02/06 06:25:52;;;;;;;1.90;0.30;;;3.60;98.40;;;;;;5024741;28;20135;-80
2023/02/06 06:28:19;;;;;;;2.20;0.37;;;3.60;98.40;;;;;;5054984;28;20040;-80
2023/02/06 06:30:46;;;;;;;2.10;0.20;;;3.60;98.40;;;;;;5061672;28;20048;-80
2023/02/06 06:33:15;;;;;;;2.88;0.30;;;3.60;98.40;;;;;;5043884;28;20201;-80
2023/02/06 06:35:42;;;;;;;1.38;0.20;;;3.60;98.30;;;;;;5057991;28;20061;-80
2023/02/06 06:38:09;;;;;;;1.75;0.20;;;3.60;98.30;;;;;;5052384;28;20055;-79
2023/02/06 06:40:36;;;;;;;2.53;0.20;;;3.60;98.30;;;;;;5060773;28;20050;-79
2023/02/06 06:43:03;;;;;;;3.28;0.30;;;3.60;98.30;;;;;;5060990;28;20036;-80
2023/02/06 06:45:30;;;;;;;4.17;0.43;;;3.60;98.30;;;;;;5077903;28;20048;-80
2023/02/06 06:47:57;;;;;;;1.30;0.20;;;3.60;98.30;;;;;;5044188;28;20048;-81
2023/02/06 06:50:24;;;;;;;7.27;0.67;;;3.70;98.30;;;;;;5044383;28;20036;-80
2023/02/06 06:52:51;;;;;;;3.97;0.20;;;3.70;98.30;;;;;;5077263;28;20063;-80
2023/02/06 06:55:18;;;;;;;1.37;0.40;;;3.70;98.30;;;;;;5061198;28;20055;-79
2023/02/06 06:57:46;;;;;;;1.48;0.20;;;3.70;98.30;;;;;;5044401;28;20099;-80
2023/02/06 07:00:14;;;;;;;5.40;0.37;;;3.70;98.30;;;;;;5060882;28;20044;-80
2023/02/06 07:02:41;;;;;;;3.40;0.30;;;3.70;98.30;;;;;;5040406;28;20051;-80
2023/02/06 07:05:09;;;;;;;2.80;0.30;;;3.70;98.30;;;;;;5024764;28;20071;-81
2023/02/06 07:07:37;;;;;;;2.00;0.30;;;3.70;98.20;;;;;;5040563;28;20040;-80
2023/02/06 07:10:07;;;;;;;3.47;0.20;;;3.80;98.30;;;;;;5057100;28;20139;-80
2023/02/06 07:12:34;;;;;;;1.05;0.15;;;3.80;98.30;;;;;;5054947;28;20058;-81
2023/02/06 07:15:01;;;;;;;0.93;0.17;;;3.80;98.20;;;;;;5077295;28;20499;-80
2023/02/06 07:17:28;;;;;;;2.25;0.50;;;3.80;98.20;;;;;;5043802;28;20052;-79
2023/02/06 07:19:55;;;;;;;2.80;0.38;;;3.80;98.20;;;;;;5064068;28;20070;-80
2023/02/06 07:22:24;;;;;;;2.08;0.30;;;3.80;98.20;;;;;;5024078;28;20048;-80
2023/02/06 07:24:51;;;;;;;3.08;0.30;;;3.90;98.20;;;;;;5039348;28;20048;-80
2023/02/06 07:27:20;;;;;;;3.17;0.40;;;3.90;98.20;;;;;;5024860;28;20167;-80
2023/02/06 07:29:47;;;;;;;1.95;0.30;;;3.90;98.20;;;;;;5040253;28;20467;-80
2023/02/06 07:32:14;;;;;;;1.70;0.38;;;3.90;98.20;;;;;;5023495;28;20048;-80
2023/02/06 07:34:41;;;;;;;5.45;0.40;;;3.90;98.20;;;;;;5040378;28;20134;-80
2023/02/06 07:37:09;;;;;;;3.83;0.63;;;4.00;98.20;;;;;;5040043;28;20489;-80
2023/02/06 07:39:36;;;;;;;4.00;0.40;;;3.90;98.20;;;;;;5040071;28;20131;-80
2023/02/06 07:42:04;;;;;;;3.22;0.40;;;3.90;98.20;;;;;;5040122;28;20056;-81
2023/02/06 07:44:47;;;;;;;4.90;0.50;;;3.90;98.10;;;;;;5042515;28;20051;-80
2023/02/06 07:47:14;;;;;;;2.20;0.50;;;3.90;98.10;;;;;;5023621;28;20542;-80
2023/02/06 07:49:41;;;;;;;3.05;0.50;;;4.00;98.10;;;;;;5039510;28;20040;-81
2023/02/06 07:52:08;;;;;;;4.88;0.68;;;4.00;98.10;;;;;;5059545;28;20052;-80
2023/02/06 07:54:35;;;;;;;4.00;0.60;;;4.00;98.10;;;;;;5059610;28;20131;-80
2023/02/06 07:57:02;;;;;;;3.03;0.32;;;4.00;98.10;;;;;;5049333;28;20485;-80
2023/02/06 07:59:29;;;;;;;1.90;0.35;;;4.00;98.10;;;;;;5019796;28;20144;-80
2023/02/06 08:01:56;;;;;;;6.00;0.57;;;4.10;98.10;;;;;;5033910;28;20145;-81
2023/02/06 08:04:33;;;;;;;2.78;0.55;;;4.10;98.10;;;;;;5037000;28;20044;-80
2023/02/06 08:07:02;;;;;;;3.75;0.50;;;4.10;98.10;;;;;;5036387;28;20132;-80
2023/02/06 08:09:30;;;;;;;5.20;0.47;;;4.20;98.00;;;;;;5019954;28;20037;-81
2023/02/06 08:12:00;;;;;;;2.65;0.50;;;4.20;98.00;;;;;;5035918;28;20041;-80
2023/02/06 08:14:27;;;;;;;2.70;0.75;;;4.20;98.00;;;;;;5035838;28;20074;-81
2023/02/06 08:16:54;;;;;;;4.03;0.68;;;4.20;98.00;;;;;;5036996;28;20040;-80
2023/02/06 08:19:22;;;;;;;3.65;0.38;;;4.30;98.00;;;;;;5044843;28;20064;-80
2023/02/06 08:21:49;;;;;;;1.30;0.30;;;4.30;98.00;;;;;;5055272;28;20063;-80
2023/02/06 08:24:16;;;;;;;1.48;0.40;;;4.40;98.00;;;;;;5023249;28;20044;-84
2023/02/06 08:26:43;;;;;;;0.88;0.30;;;4.40;98.00;;;;;;5022971;28;20052;-84
2023/02/06 08:29:13;;;;;;;1.92;0.22;;;4.50;97.90;;;;;;5039411;28;20139;-84
2023/02/06 08:31:41;;;;;;;2.00;0.38;;;4.50;98.20;;;;;;5055688;28;20052;-84
2023/02/06 08:34:12;;;;;;;1.13;0.30;;;4.60;97.90;;;;;;5036788;28;20055;-84
2023/02/06 08:36:40;;;;;;;2.72;0.50;;;4.60;97.80;;;;;;5058797;28;20074;-81
2023/02/06 08:39:12;;;;;;;4.55;0.50;;;4.70;97.80;;;;;;5075936;28;20047;-80
2023/02/06 08:41:42;;;;;;;1.70;0.40;;;4.70;97.80;;;;;;5059087;28;20043;-80
2023/02/06 08:44:15;;;;;;;0.73;0.40;;;4.80;97.80;;;;;;5058822;28;20047;-80
2023/02/06 08:46:43;;;;;;;5.85;0.57;;;4.80;97.70;;;;;;5075676;28;20117;-81
2023/02/06 08:49:13;;;;;;;2.85;0.30;;;4.80;97.70;;;;;;5071435;28;20029;-80
2023/02/06 08:51:41;;;;;;;2.65;0.20;;;4.90;97.60;;;;;;5038769;28;20480;-81
2023/02/06 08:54:14;;;;;;;2.50;0.40;;;4.90;97.60;;;;;;5022613;28;20063;-80
2023/02/06 08:56:42;;;;;;;4.50;0.70;;;5.00;97.60;;;;;;5055204;28;20131;-80
2023/02/06 08:59:11;;;;;;;2.83;0.45;;;5.00;97.60;;;;;;5073777;28;20443;-80
2023/02/06 09:01:39;;;;;;;2.95;0.40;;;5.00;97.60;;;;;;5054113;28;20045;-80
2023/02/06 09:04:09;;;;;;;2.78;0.32;;;5.00;97.50;;;;;;5064208;28;20048;-80
2023/02/06 09:06:38;;;;;;;2.63;0.40;;;5.10;97.60;;;;;;5058010;28;20051;-81
2023/02/06 09:09:07;;;;;;;3.95;0.40;;;5.20;97.60;;;;;;5066911;28;20396;-80
2023/02/06 09:11:36;;;;;;;4.50;0.60;;;5.30;97.50;;;;;;5057116;28;20051;-80
2023/02/06 09:14:05;;;;;;;1.52;0.40;;;5.30;97.50;;;;;;5042063;28;20504;-81
2023/02/06 09:16:33;;;;;;;1.92;0.50;;;5.40;97.50;;;;;;5058792;28;20037;-80
2023/02/06 09:19:01;;;;;;;2.97;0.30;;;5.50;97.40;;;;;;5054689;28;20466;-81
2023/02/06 09:21:31;;;;;;;3.50;0.55;;;5.50;97.30;;;;;;5054331;28;20044;-80
2023/02/06 09:24:02;;;;;;;5.20;0.90;;;5.50;97.30;;;;;;5019448;28;20420;-81
2023/02/06 09:26:35;;;;;;;5.80;0.55;;;5.60;97.30;;;;;;5052125;28;20086;-81
2023/02/06 09:29:11;;;;;;;2.80;0.60;;;5.60;97.30;;;;;;5054776;28;20407;-79
2023/02/06 09:31:41;;;;;;;3.25;0.30;;;5.60;97.30;;;;;;5054937;28;20079;-81
2023/02/06 09:34:10;;;;;;;4.63;0.55;;;5.70;97.40;;;;;;5054961;28;20041;-79
2023/02/06 09:36:37;;;;;;;3.88;0.93;;;5.80;97.30;;;;;;5054686;28;20500;-81
2023/02/06 09:39:06;;;;;;;3.80;0.60;;;5.90;97.20;;;;;;5047462;28;20053;-80
2023/02/06 09:41:45;;;;;;;4.07;0.82;;;6.00;97.20;;;;;;5034882;28;20053;-80
2023/02/06 09:44:28;;;;;;;5.03;1.25;;;6.00;97.10;;;;;;5037159;28;20049;-81
2023/02/06 09:47:05;;;;;;;6.38;1.02;;;6.10;97.10;;;;;;5054448;28;20063;-81
2023/02/06 09:49:38;;;;;;;3.40;0.45;;;6.10;97.00;;;;;;5058687;28;20033;-83
2023/02/06 09:52:43;;;;;;;3.60;0.65;;;6.10;97.00;;;;;;5041753;28;20136;-81
2023/02/06 09:55:32;;;;;;;6.88;0.65;;;6.20;96.90;;;;;;5035257;28;20041;-81
2023/02/06 09:58:06;;;;;;;4.38;0.90;;;6.20;96.90;;;;;;5047177;28;20408;-81
2023/02/06 10:00:59;;;;;;;3.40;0.52;;;6.20;96.90;;;;;;5080493;28;20048;-81
2023/02/06 10:03:45;;;;;;;2.90;0.40;;;6.30;96.90;;;;;;5028294;28;20049;-81
2023/02/06 10:07:03;;;;;;;1.83;0.30;;;6.40;96.80;;;;;;5038603;28;20411;-82
2023/02/06 10:09:50;;;;;;;2.88;0.50;;;6.50;96.80;;;;;;5011362;28;20132;-81
2023/02/06 10:12:37;;;;;;;5.10;0.55;;;6.60;96.70;;;;;;5058132;28;20103;-83
2023/02/06 10:15:15;;;;;;;4.65;0.60;;;6.70;96.60;;;;;;5056098;28;20052;-88
2023/02/06 10:17:51;;;;;;;3.13;0.40;;;6.70;96.60;;;;;;5057493;28;20432;-80
2023/02/06 10:20:28;;;;;;;11.70;1.10;;;6.70;96.60;;;;;;5055585;28;20072;-82
2023/02/06 10:23:13;;;;;;;3.60;0.30;;;6.80;96.60;;;;;;5057050;28;20407;-82
2023/02/06 10:26:04;;;;;;;3.03;0.30;;;6.80;96.60;;;;;;5057104;28;20068;-81
2023/02/06 10:28:34;;;;;;;2.40;0.40;;;6.90;96.50;;;;;;5065878;28;20401;-80
2023/02/06 10:31:22;;;;;;;2.90;0.43;;;7.00;96.60;;;;;;5058004;28;20525;-81
2023/02/06 10:34:13;;;;;;;2.90;0.40;;;7.10;96.50;;;;;;5057521;28;20040;-81
2023/02/06 10:36:43;;;;;;;6.97;0.80;;;7.20;96.40;;;;;;5040649;28;20100;-81
2023/02/06 10:39:30;;;;;;;7.82;0.80;;;7.30;96.30;;;;;;5041269;28;20056;-81
2023/02/06 10:42:21;;;;;;;6.90;0.60;;;7.40;96.20;;;;;;5037781;28;20114;-82
2023/02/06 10:44:48;;;;;;;8.98;0.60;;;7.50;96.20;;;;;;5056336;28;20114;-80
2023/02/06 10:47:29;;;;;;;7.78;1.13;;;7.50;96.10;;;;;;5041101;28;20037;-81
2023/02/06 10:50:20;;;;;;;7.35;0.70;;;7.60;96.00;;;;;;5041034;28;20078;-81
2023/02/06 10:52:48;;;;;;;5.53;0.57;;;7.60;96.00;;;;;;5040649;28;20399;-81
2023/02/06 10:55:55;;;;;;;4.00;0.85;;;7.60;96.00;;;;;;5040935;28;20041;-81
2023/02/06 10:58:51;;;;;;;5.78;0.60;;;7.70;96.00;;;;;;5040193;28;20052;-81
2023/02/06 11:01:21;;;;;;;7.65;0.55;;;7.70;95.90;;;;;;5055254;28;20045;-80
2023/02/06 11:04:11;;;;;;;4.63;0.88;;;7.70;95.90;;;;;;5041637;28;20044;-83
2023/02/06 11:06:41;;;;;;;4.63;0.65;;;7.70;95.90;;;;;;5040495;28;20067;-82
2023/02/06 11:09:09;;;;;;;3.70;0.68;;;7.80;95.90;;;;;;5077102;28;20500;-82
2023/02/06 11:11:39;;;;;;;1.33;0.50;;;7.80;95.90;;;;;;5060396;28;20434;-81
2023/02/06 11:14:15;;;;;;;4.85;1.08;;;7.80;95.90;;;;;;5076997;28;20446;-81
2023/02/06 11:16:44;;;;;;;5.65;0.90;;;7.90;95.80;;;;;;5077154;28;20044;-81
2023/02/06 11:19:18;;;;;;;4.63;0.40;;;7.90;95.70;;;;;;5060795;28;20047;-81
2023/02/06 11:22:10;;;;;;;3.70;0.30;;;8.00;95.70;;;;;;5076880;28;20078;-81
2023/02/06 11:24:56;;;;;;;2.17;0.60;;;8.10;96.00;;;;;;5060606;28;20555;-81
2023/02/06 11:27:24;;;;;;;4.75;0.52;;;8.10;95.60;;;;;;5077196;28;20072;-81
2023/02/06 11:29:51;;;;;;;5.97;0.38;;;8.10;95.60;;;;;;5070779;28;20550;-81
2023/02/06 11:32:35;;;;;;;4.18;0.50;;;8.10;95.60;;;;;;5056988;28;20063;-81
2023/02/06 11:35:22;;;;;;;2.28;0.38;;;8.10;95.60;;;;;;5056776;28;20123;-81
2023/02/06 11:38:02;;;;;;;3.10;0.30;;;8.10;95.60;;;;;;5056727;28;20072;-80
2023/02/06 11:40:31;;;;;;;3.75;0.50;;;8.20;95.60;;;;;;5040348;28;20469;-81
2023/02/06 11:43:22;;;;;;;3.88;0.32;;;8.10;95.60;;;;;;5056095;28;20045;-81
2023/02/06 11:46:04;;;;;;;1.70;0.20;;;8.10;95.50;;;;;;5056693;28;20033;-81
2023/02/06 11:48:37;;;;;;;3.57;0.30;;;8.10;95.60;;;;;;5039588;28;20382;-81
2023/02/06 11:51:06;;;;;;;5.40;0.95;;;8.10;95.60;;;;;;5054791;28;20295;-81
2023/02/06 11:53:34;;;;;;;1.65;0.20;;;8.10;95.60;;;;;;5036650;28;20037;-81
2023/02/06 11:56:15;;;;;;;3.83;0.73;;;8.20;95.50;;;;;;5020339;28;20033;-80
2023/02/06 11:58:44;;;;;;;3.30;0.30;;;8.30;95.30;;;;;;5019964;28;20049;-81
2023/02/06 12:01:19;;;;;;;3.63;0.43;;;8.30;95.30;;;;;;5052046;28;20041;-81
2023/02/06 12:03:50;;;;;;;3.65;0.30;;;8.40;95.10;;;;;;5054833;28;20049;-81
2023/02/06 12:06:29;;;;;;;5.35;0.52;;;8.40;95.00;;;;;;5073904;28;20396;-82
2023/02/06 12:08:59;;;;;;;3.10;0.40;;;8.50;94.90;;;;;;5039257;28;20076;-81
2023/02/06 12:11:43;;;;;;;2.42;0.32;;;8.40;94.90;;;;;;5055861;28;20109;-80
2023/02/06 12:14:24;;;;;;;3.17;0.38;;;8.40;94.80;;;;;;5049809;28;20127;-80
2023/02/06 12:16:52;;;;;;;2.42;0.20;;;8.40;94.80;;;;;;5055763;28;20063;-82
2023/02/06 12:19:34;;;;;;;4.05;0.40;;;8.40;94.80;;;;;;5049953;28;20102;-82
2023/02/06 12:22:14;;;;;;;2.50;0.50;;;8.50;94.70;;;;;;5038968;28;20068;-82
2023/02/06 12:24:46;;;;;;;2.95;0.30;;;8.50;94.60;;;;;;5055953;28;20451;-82
2023/02/06 12:27:19;;;;;;;6.45;0.65;;;8.40;94.60;;;;;;5055813;28;20044;-83
2023/02/06 12:30:05;;;;;;;2.78;0.35;;;8.40;94.50;;;;;;5035948;28;20041;-85
2023/02/06 12:32:39;;;;;;;2.10;0.20;;;8.30;94.50;;;;;;5049185;28;20145;-83
2023/02/06 12:35:20;;;;;;;4.18;0.43;;;8.30;94.50;;;;;;5020477;28;20072;-84
2023/02/06 12:37:52;;;;;;;2.53;0.20;;;8.30;94.50;;;;;;5052385;28;20544;-84
2023/02/06 12:40:48;;;;;;;2.08;0.25;;;8.20;94.50;;;;;;5037341;28;20046;-83
2023/02/06 12:43:17;;;;;;;2.78;0.20;;;8.20;94.50;;;;;;5042953;28;20126;-83
2023/02/06 12:46:17;;;;;;;4.05;0.40;;;8.10;94.40;;;;;;5038922;28;20045;-82
2023/02/06 12:48:54;;;;;;;2.33;0.30;;;8.00;94.40;;;;;;5055435;28;20518;-83
2023/02/06 12:51:43;;;;;;;2.08;0.30;;;8.00;94.60;;;;;;5055080;28;20044;-83
2023/02/06 12:54:10;;;;;;;6.82;0.30;;;8.00;94.60;;;;;;5055268;28;20118;-83
2023/02/06 12:56:47;;;;;;;2.42;0.28;;;8.00;94.60;;;;;;5038730;28;20040;-84
2023/02/06 12:59:23;;;;;;;3.58;0.20;;;8.10;94.50;;;;;;5038570;28;20114;-82
2023/02/06 13:02:35;;;;;;;2.35;0.30;;;8.20;94.40;;;;;;5055445;28;20048;-84
2023/02/06 13:05:16;;;;;;;4.70;0.40;;;8.40;94.10;;;;;;5032401;28;20068;-83
2023/02/06 13:07:45;;;;;;;1.52;0.38;;;8.50;94.00;;;;;;5038895;28;20052;-84
2023/02/06 13:10:23;;;;;;;5.43;0.45;;;8.60;93.90;;;;;;5023349;28;20041;-83
2023/02/06 13:12:58;;;;;;;2.80;0.38;;;8.70;93.70;;;;;;5038873;28;20041;-80
2023/02/06 13:15:30;;;;;;;3.00;0.60;;;8.70;93.70;;;;;;5054900;28;20044;-83
2023/02/06 13:17:58;;;;;;;4.75;1.15;;;8.70;93.70;;;;;;5055049;28;20102;-82
2023/02/06 13:20:26;;;;;;;2.97;0.40;;;8.60;93.50;;;;;;5038777;28;20812;-83
2023/02/06 13:23:20;;;;;;;3.72;0.60;;;8.60;93.60;;;;;;5054385;28;20118;-82
2023/02/06 13:25:48;;;;;;;2.53;0.32;;;8.50;93.50;;;;;;5038451;28;20064;-83